sensor_id;sensor_type;location;lat;lon;timestamp;pressure;altitude;pressure_sealevel;temperature;humidity
10079;BME280;5078;42.544;22.966;2023-06-05T00:00:22;94362.84;;;13.80;100.00
10079;BME280;5078;42.544;22.966;2023-06-05T00:02:48;94367.34;;;13.95;100.00
10079;BME280;5078;42.544;22.966;2023-06-05T00:05:15;94361.28;;;13.71;100.00
10079;BME280;5078;42.544;22.966;2023-06-05T00:07:43;94362.66;;;13.67;100.00
10079;BME280;5078;42.544;22.966;2023-06-05T00:10:10;94371.47;;;13.68;100.00
10079;BME280;5078;42.544;22.966;2023-06-05T00:12:38;94372.75;;;13.72;100.00
10079;BME280;5078;42.544;22.966;2023-06-05T00:15:07;94366.31;;;13.66;100.00
10079;BME280;5078;42.544;22.966;2023-06-05T00:17:35;94350.31;;;13.51;100.00
10079;BME280;5078;42.544;22.966;2023-06-05T00:20:02;94376.06;;;13.74;100.00
10079;BME280;5078;42.544;22.966;2023-06-05T00:22:29;94381.22;;;13.75;100.00
10079;BME280;5078;42.544;22.966;2023-06-05T00:24:56;94381.94;;;13.69;100.00
10079;BME280;5078;42.544;22.966;2023-06-05T00:27:23;94380.94;;;13.55;100.00
10079;BME280;5078;42.544;22.966;2023-06-05T00:29:50;94378.53;;;13.46;100.00
10079;BME280;5078;42.544;22.966;2023-06-05T00:32:16;94380.94;;;13.55;100.00
10079;BME280;5078;42.544;22.966;2023-06-05T00:34:45;94369.31;;;13.33;100.00
10079;BME280;5078;42.544;22.966;2023-06-05T00:37:14;94382.84;;;13.62;100.00
10079;BME280;5078;42.544;22.966;2023-06-05T00:39:41;94380.16;;;13.47;100.00
10079;BME280;5078;42.544;22.966;2023-06-05T00:42:08;94372.72;;;13.42;100.00
10079;BME280;5078;42.544;22.966;2023-06-05T00:44:35;94378.34;;;13.62;100.00
10079;BME280;5078;42.544;22.966;2023-06-05T00:47:03;94379.78;;;13.50;100.00
10079;BME280;5078;42.544;22.966;2023-06-05T00:49:30;94372.81;;;13.49;100.00
10079;BME280;5078;42.544;22.966;2023-06-05T00:51:59;94388.09;;;13.70;100.00
10079;BME280;5078;42.544;22.966;2023-06-05T00:54:26;94379.47;;;13.82;100.00
10079;BME280;5078;42.544;22.966;2023-06-05T00:56:53;94372.06;;;13.93;100.00
10079;BME280;5078;42.544;22.966;2023-06-05T00:59:20;94368.47;;;14.00;100.00
10079;BME280;5078;42.544;22.966;2023-06-05T01:01:47;94366.63;;;14.16;100.00
10079;BME280;5078;42.544;22.966;2023-06-05T01:04:14;94364.00;;;14.22;100.00
10079;BME280;5078;42.544;22.966;2023-06-05T01:06:41;94362.81;;;14.25;100.00
10079;BME280;5078;42.544;22.966;2023-06-05T01:09:10;94348.88;;;14.23;100.00
10079;BME280;5078;42.544;22.966;2023-06-05T01:11:43;94340.22;;;14.21;100.00
10079;BME280;5078;42.544;22.966;2023-06-05T01:14:15;94338.22;;;14.08;100.00
10079;BME280;5078;42.544;22.966;2023-06-05T01:16:48;94335.53;;;14.08;100.00
10079;BME280;5078;42.544;22.966;2023-06-05T01:19:17;94341.78;;;14.15;100.00
10079;BME280;5078;42.544;22.966;2023-06-05T01:21:43;94337.59;;;14.28;100.00
10079;BME280;5078;42.544;22.966;2023-06-05T01:24:11;94337.06;;;14.17;100.00
10079;BME280;5078;42.544;22.966;2023-06-05T01:26:47;94324.38;;;14.34;100.00
10079;BME280;5078;42.544;22.966;2023-06-05T01:29:22;94342.47;;;14.39;100.00
10079;BME280;5078;42.544;22.966;2023-06-05T01:31:55;94328.59;;;14.43;100.00
10079;BME280;5078;42.544;22.966;2023-06-05T01:34:28;94329.09;;;13.88;100.00
10079;BME280;5078;42.544;22.966;2023-06-05T01:36:55;94337.47;;;14.14;100.00
10079;BME280;5078;42.544;22.966;2023-06-05T01:39:25;94325.75;;;14.30;100.00
10079;BME280;5078;42.544;22.966;2023-06-05T01:41:54;94335.84;;;14.35;100.00
10079;BME280;5078;42.544;22.966;2023-06-05T01:44:21;94330.50;;;14.50;100.00
10079;BME280;5078;42.544;22.966;2023-06-05T01:46:49;94325.25;;;14.56;100.00
10079;BME280;5078;42.544;22.966;2023-06-05T01:49:16;94321.81;;;14.62;100.00
10079;BME280;5078;42.544;22.966;2023-06-05T01:51:42;94326.31;;;14.26;100.00
10079;BME280;5078;42.544;22.966;2023-06-05T01:54:10;94332.78;;;14.16;100.00
10079;BME280;5078;42.544;22.966;2023-06-05T01:56:38;94335.44;;;14.01;100.00
10079;BME280;5078;42.544;22.966;2023-06-05T01:59:05;94334.63;;;13.86;100.00
10079;BME280;5078;42.544;22.966;2023-06-05T02:01:33;94323.97;;;13.86;100.00
10079;BME280;5078;42.544;22.966;2023-06-05T02:04:01;94330.22;;;13.93;100.00
10079;BME280;5078;42.544;22.966;2023-06-05T02:06:32;94341.06;;;13.77;100.00
10079;BME280;5078;42.544;22.966;2023-06-05T02:09:06;94339.47;;;13.97;100.00
10079;BME280;5078;42.544;22.966;2023-06-05T02:11:34;94345.75;;;14.05;100.00
10079;BME280;5078;42.544;22.966;2023-06-05T02:14:03;94333.69;;;14.23;100.00
10079;BME280;5078;42.544;22.966;2023-06-05T02:16:30;94340.47;;;14.41;100.00
10079;BME280;5078;42.544;22.966;2023-06-05T02:18:57;94329.84;;;14.48;100.00
10079;BME280;5078;42.544;22.966;2023-06-05T02:21:29;94331.94;;;14.52;100.00
10079;BME280;5078;42.544;22.966;2023-06-05T02:23:58;94321.66;;;14.64;100.00
10079;BME280;5078;42.544;22.966;2023-06-05T02:26:25;94308.97;;;14.51;100.00
10079;BME280;5078;42.544;22.966;2023-06-05T02:28:52;94301.69;;;14.60;100.00
10079;BME280;5078;42.544;22.966;2023-06-05T02:31:21;94302.56;;;14.67;100.00
10079;BME280;5078;42.544;22.966;2023-06-05T02:33:50;94306.91;;;14.68;100.00
10079;BME280;5078;42.544;22.966;2023-06-05T02:36:18;94298.75;;;14.55;100.00
10079;BME280;5078;42.544;22.966;2023-06-05T02:38:45;94304.22;;;14.32;100.00
10079;BME280;5078;42.544;22.966;2023-06-05T02:41:15;94311.63;;;14.66;100.00
10079;BME280;5078;42.544;22.966;2023-06-05T02:43:42;94323.38;;;14.72;100.00
10079;BME280;5078;42.544;22.966;2023-06-05T02:46:08;94321.91;;;14.69;100.00
10079;BME280;5078;42.544;22.966;2023-06-05T02:48:36;94332.44;;;14.41;100.00
10079;BME280;5078;42.544;22.966;2023-06-05T02:51:03;94326.47;;;14.54;100.00
10079;BME280;5078;42.544;22.966;2023-06-05T02:53:31;94322.47;;;14.64;100.00
10079;BME280;5078;42.544;22.966;2023-06-05T02:55:58;94322.03;;;14.82;100.00
10079;BME280;5078;42.544;22.966;2023-06-05T02:58:26;94318.28;;;14.77;100.00
10079;BME280;5078;42.544;22.966;2023-06-05T03:00:53;94327.97;;;14.78;100.00
10079;BME280;5078;42.544;22.966;2023-06-05T03:03:21;94328.16;;;14.76;100.00
10079;BME280;5078;42.544;22.966;2023-06-05T03:05:52;94322.47;;;14.64;100.00
10079;BME280;5078;42.544;22.966;2023-06-05T03:08:19;94320.78;;;14.78;100.00
10079;BME280;5078;42.544;22.966;2023-06-05T03:10:46;94319.09;;;14.77;100.00
10079;BME280;5078;42.544;22.966;2023-06-05T03:13:13;94324.97;;;14.66;100.00
10079;BME280;5078;42.544;22.966;2023-06-05T03:15:40;94321.38;;;14.59;100.00
10079;BME280;5078;42.544;22.966;2023-06-05T03:18:07;94329.47;;;14.65;100.00
10079;BME280;5078;42.544;22.966;2023-06-05T03:20:34;94335.44;;;14.67;100.00
10079;BME280;5078;42.544;22.966;2023-06-05T03:23:02;94331.03;;;14.45;100.00
10079;BME280;5078;42.544;22.966;2023-06-05T03:25:29;94331.28;;;14.65;100.00
10079;BME280;5078;42.544;22.966;2023-06-05T03:27:56;94344.53;;;14.73;100.00
10079;BME280;5078;42.544;22.966;2023-06-05T03:30:24;94355.34;;;14.86;100.00
10079;BME280;5078;42.544;22.966;2023-06-05T03:32:50;94347.66;;;14.77;100.00
10079;BME280;5078;42.544;22.966;2023-06-05T03:35:17;94344.75;;;14.93;100.00
10079;BME280;5078;42.544;22.966;2023-06-05T03:37:44;94351.72;;;14.94;100.00
10079;BME280;5078;42.544;22.966;2023-06-05T03:40:12;94349.53;;;14.98;100.00
10079;BME280;5078;42.544;22.966;2023-06-05T03:42:39;94347.47;;;15.00;100.00
10079;BME280;5078;42.544;22.966;2023-06-05T03:45:06;94348.06;;;14.95;100.00
10079;BME280;5078;42.544;22.966;2023-06-05T03:47:34;94331.75;;;15.12;100.00
10079;BME280;5078;42.544;22.966;2023-06-05T03:50:01;94323.69;;;14.83;100.00
10079;BME280;5078;42.544;22.966;2023-06-05T03:52:29;94346.16;;;14.38;100.00
10079;BME280;5078;42.544;22.966;2023-06-05T03:54:55;94345.00;;;14.26;100.00
10079;BME280;5078;42.544;22.966;2023-06-05T03:57:24;94344.13;;;14.40;100.00
10079;BME280;5078;42.544;22.966;2023-06-05T03:59:50;94347.06;;;14.45;100.00
10079;BME280;5078;42.544;22.966;2023-06-05T04:02:18;94337.03;;;14.62;100.00
10079;BME280;5078;42.544;22.966;2023-06-05T04:04:44;94336.47;;;14.66;100.00
10079;BME280;5078;42.544;22.966;2023-06-05T04:07:11;94343.63;;;14.66;100.00
10079;BME280;5078;42.544;22.966;2023-06-05T04:09:38;94353.25;;;14.82;100.00
10079;BME280;5078;42.544;22.966;2023-06-05T04:12:05;94346.94;;;14.89;100.00
10079;BME280;5078;42.544;22.966;2023-06-05T04:14:33;94353.06;;;15.05;100.00
10079;BME280;5078;42.544;22.966;2023-06-05T04:17:01;94354.06;;;14.82;100.00
10079;BME280;5078;42.544;22.966;2023-06-05T04:19:28;94348.69;;;14.76;100.00
10079;BME280;5078;42.544;22.966;2023-06-05T04:21:54;94353.53;;;14.72;100.00
10079;BME280;5078;42.544;22.966;2023-06-05T04:24:21;94351.28;;;14.91;100.00
10079;BME280;5078;42.544;22.966;2023-06-05T04:26:50;94335.44;;;14.67;100.00
10079;BME280;5078;42.544;22.966;2023-06-05T04:29:17;94347.97;;;14.88;100.00
10079;BME280;5078;42.544;22.966;2023-06-05T04:31:46;94348.16;;;14.87;100.00
10079;BME280;5078;42.544;22.966;2023-06-05T04:34:13;94345.06;;;14.83;100.00
10079;BME280;5078;42.544;22.966;2023-06-05T04:36:43;94347.84;;;14.75;100.00
10079;BME280;5078;42.544;22.966;2023-06-05T04:39:10;94341.94;;;15.01;100.00
10079;BME280;5078;42.544;22.966;2023-06-05T04:41:40;94349.94;;;15.01;100.00
10079;BME280;5078;42.544;22.966;2023-06-05T04:44:10;94344.19;;;14.98;100.00
10079;BME280;5078;42.544;22.966;2023-06-05T04:46:38;94350.78;;;15.23;100.00
10079;BME280;5078;42.544;22.966;2023-06-05T04:49:06;94354.63;;;15.42;100.00
10079;BME280;5078;42.544;22.966;2023-06-05T04:51:34;94340.19;;;15.37;100.00
10079;BME280;5078;42.544;22.966;2023-06-05T04:54:01;94347.88;;;15.46;100.00
10079;BME280;5078;42.544;22.966;2023-06-05T04:56:28;94339.53;;;15.56;100.00
10079;BME280;5078;42.544;22.966;2023-06-05T04:58:57;94331.16;;;15.38;100.00
10079;BME280;5078;42.544;22.966;2023-06-05T05:01:24;94337.97;;;15.40;100.00
10079;BME280;5078;42.544;22.966;2023-06-05T05:03:53;94338.88;;;15.54;100.00
10079;BME280;5078;42.544;22.966;2023-06-05T05:06:21;94334.19;;;15.56;100.00
10079;BME280;5078;42.544;22.966;2023-06-05T05:08:48;94339.13;;;15.31;100.00
10079;BME280;5078;42.544;22.966;2023-06-05T05:11:15;94335.56;;;15.24;100.00
10079;BME280;5078;42.544;22.966;2023-06-05T05:13:42;94334.59;;;15.31;100.00
10079;BME280;5078;42.544;22.966;2023-06-05T05:16:09;94336.00;;;15.27;100.00
10079;BME280;5078;42.544;22.966;2023-06-05T05:18:39;94328.28;;;15.39;100.00
10079;BME280;5078;42.544;22.966;2023-06-05T05:21:07;94332.81;;;15.17;100.00
10079;BME280;5078;42.544;22.966;2023-06-05T05:23:35;94340.19;;;15.37;100.00
10079;BME280;5078;42.544;22.966;2023-06-05T05:26:02;94334.44;;;15.40;100.00
10079;BME280;5078;42.544;22.966;2023-06-05T05:28:30;94333.84;;;15.38;100.00
10079;BME280;5078;42.544;22.966;2023-06-05T05:30:57;94323.94;;;15.10;100.00
10079;BME280;5078;42.544;22.966;2023-06-05T05:33:24;94316.69;;;15.25;100.00
10079;BME280;5078;42.544;22.966;2023-06-05T05:35:50;94326.41;;;15.33;100.00
10079;BME280;5078;42.544;22.966;2023-06-05T05:38:17;94321.19;;;15.25;100.00
10079;BME280;5078;42.544;22.966;2023-06-05T05:40:45;94330.28;;;15.30;100.00
10079;BME280;5078;42.544;22.966;2023-06-05T05:43:12;94326.19;;;15.35;100.00
10079;BME280;5078;42.544;22.966;2023-06-05T05:45:39;94328.34;;;15.46;100.00
10079;BME280;5078;42.544;22.966;2023-06-05T05:48:07;94325.75;;;15.31;100.00
10079;BME280;5078;42.544;22.966;2023-06-05T05:50:34;94327.94;;;15.21;100.00
10079;BME280;5078;42.544;22.966;2023-06-05T05:53:02;94326.88;;;15.43;100.00
10079;BME280;5078;42.544;22.966;2023-06-05T05:55:28;94326.91;;;15.50;100.00
10079;BME280;5078;42.544;22.966;2023-06-05T05:57:57;94323.50;;;15.56;100.00
10079;BME280;5078;42.544;22.966;2023-06-05T06:00:23;94321.16;;;15.74;100.00
10079;BME280;5078;42.544;22.966;2023-06-05T06:02:51;94297.88;;;15.68;100.00
10079;BME280;5078;42.544;22.966;2023-06-05T06:05:18;94316.91;;;15.80;100.00
10079;BME280;5078;42.544;22.966;2023-06-05T06:07:45;94317.09;;;15.79;100.00
10079;BME280;5078;42.544;22.966;2023-06-05T06:10:13;94315.38;;;16.06;100.00
10079;BME280;5078;42.544;22.966;2023-06-05T06:12:39;94314.22;;;16.22;100.00
10079;BME280;5078;42.544;22.966;2023-06-05T06:15:09;94313.88;;;15.96;100.00
10079;BME280;5078;42.544;22.966;2023-06-05T06:17:36;94315.97;;;16.01;100.00
10079;BME280;5078;42.544;22.966;2023-06-05T06:20:04;94319.28;;;16.10;100.00
10079;BME280;5078;42.544;22.966;2023-06-05T06:22:32;94316.44;;;15.77;100.00
10079;BME280;5078;42.544;22.966;2023-06-05T06:24:59;94319.50;;;16.08;100.00
10079;BME280;5078;42.544;22.966;2023-06-05T06:27:25;94321.59;;;16.20;100.00
10079;BME280;5078;42.544;22.966;2023-06-05T06:29:52;94320.59;;;16.21;100.00
10079;BME280;5078;42.544;22.966;2023-06-05T06:32:21;94318.94;;;16.20;100.00
10079;BME280;5078;42.544;22.966;2023-06-05T06:34:48;94318.84;;;16.41;100.00
10079;BME280;5078;42.544;22.966;2023-06-05T06:37:16;94313.69;;;16.46;100.00
10079;BME280;5078;42.544;22.966;2023-06-05T06:39:43;94308.78;;;16.56;100.00
10079;BME280;5078;42.544;22.966;2023-06-05T06:42:10;94313.94;;;16.58;100.00
10079;BME280;5078;42.544;22.966;2023-06-05T06:44:37;94313.53;;;16.61;100.00
10079;BME280;5078;42.544;22.966;2023-06-05T06:47:04;94316.25;;;16.74;100.00
10079;BME280;5078;42.544;22.966;2023-06-05T06:49:33;94304.38;;;17.03;100.00
10079;BME280;5078;42.544;22.966;2023-06-05T06:52:00;94309.75;;;17.17;100.00
10079;BME280;5078;42.544;22.966;2023-06-05T06:54:27;94312.66;;;17.29;100.00
10079;BME280;5078;42.544;22.966;2023-06-05T06:56:55;94312.63;;;17.49;100.00
10079;BME280;5078;42.544;22.966;2023-06-05T06:59:22;94316.78;;;17.58;100.00
10079;BME280;5078;42.544;22.966;2023-06-05T07:02:08;94325.00;;;17.96;100.00
10079;BME280;5078;42.544;22.966;2023-06-05T07:04:37;94323.94;;;18.04;100.00
10079;BME280;5078;42.544;22.966;2023-06-05T07:07:04;94325.56;;;18.18;100.00
10079;BME280;5078;42.544;22.966;2023-06-05T07:09:31;94325.91;;;18.35;100.00
10079;BME280;5078;42.544;22.966;2023-06-05T07:11:58;94320.00;;;18.20;100.00
10079;BME280;5078;42.544;22.966;2023-06-05T07:14:30;94332.34;;;18.21;100.00
10079;BME280;5078;42.544;22.966;2023-06-05T07:16:57;94325.00;;;17.76;100.00
10079;BME280;5078;42.544;22.966;2023-06-05T07:19:25;94326.03;;;17.95;100.00
10079;BME280;5078;42.544;22.966;2023-06-05T07:21:54;94330.22;;;18.43;100.00
10079;BME280;5078;42.544;22.966;2023-06-05T07:24:21;94330.22;;;18.43;100.00
10079;BME280;5078;42.544;22.966;2023-06-05T07:26:49;94318.41;;;18.95;100.00
10079;BME280;5078;42.544;22.966;2023-06-05T07:29:17;94323.53;;;19.60;100.00
10079;BME280;5078;42.544;22.966;2023-06-05T07:31:45;94322.47;;;20.30;100.00
10079;BME280;5078;42.544;22.966;2023-06-05T07:34:11;94324.56;;;20.10;100.00
10079;BME280;5078;42.544;22.966;2023-06-05T07:36:39;94324.78;;;19.58;100.00
10079;BME280;5078;42.544;22.966;2023-06-05T07:39:07;94327.31;;;20.21;100.00
10079;BME280;5078;42.544;22.966;2023-06-05T07:41:34;94325.00;;;20.43;100.00
10079;BME280;5078;42.544;22.966;2023-06-05T07:44:00;94326.06;;;20.61;100.00
10079;BME280;5078;42.544;22.966;2023-06-05T07:46:27;94329.44;;;20.56;100.00
10079;BME280;5078;42.544;22.966;2023-06-05T07:48:54;94323.31;;;20.98;100.00
10079;BME280;5078;42.544;22.966;2023-06-05T07:51:21;94327.00;;;21.69;100.00
10079;BME280;5078;42.544;22.966;2023-06-05T07:53:47;94324.34;;;22.04;100.00
10079;BME280;5078;42.544;22.966;2023-06-05T07:56:15;94317.66;;;21.95;100.00
10079;BME280;5078;42.544;22.966;2023-06-05T07:58:43;94301.56;;;22.12;100.00
10079;BME280;5078;42.544;22.966;2023-06-05T08:01:10;94316.56;;;22.43;100.00
10079;BME280;5078;42.544;22.966;2023-06-05T08:03:37;94319.38;;;22.89;100.00
10079;BME280;5078;42.544;22.966;2023-06-05T08:06:04;94315.28;;;22.34;100.00
10079;BME280;5078;42.544;22.966;2023-06-05T08:08:31;94309.88;;;22.34;100.00
10079;BME280;5078;42.544;22.966;2023-06-05T08:10:57;94323.66;;;22.85;100.00
10079;BME280;5078;42.544;22.966;2023-06-05T08:13:25;94322.75;;;23.08;100.00
10079;BME280;5078;42.544;22.966;2023-06-05T08:15:52;94319.47;;;23.34;99.48
10079;BME280;5078;42.544;22.966;2023-06-05T08:18:19;94318.50;;;23.12;98.33
10079;BME280;5078;42.544;22.966;2023-06-05T08:20:46;94327.31;;;23.36;96.13
10079;BME280;5078;42.544;22.966;2023-06-05T08:23:13;94320.38;;;23.40;96.60
10079;BME280;5078;42.544;22.966;2023-06-05T08:25:42;94318.63;;;23.34;97.66
10079;BME280;5078;42.544;22.966;2023-06-05T08:28:09;94325.59;;;23.30;96.40
10079;BME280;5078;42.544;22.966;2023-06-05T08:30:37;94324.13;;;22.81;100.00
10079;BME280;5078;42.544;22.966;2023-06-05T08:33:03;94323.56;;;23.08;100.00
10079;BME280;5078;42.544;22.966;2023-06-05T08:35:30;94325.34;;;23.77;92.74
10079;BME280;5078;42.544;22.966;2023-06-05T08:37:57;94323.75;;;24.15;79.12
10079;BME280;5078;42.544;22.966;2023-06-05T08:40:25;94322.22;;;24.41;79.92
10079;BME280;5078;42.544;22.966;2023-06-05T08:42:54;94315.47;;;24.21;81.00
10079;BME280;5078;42.544;22.966;2023-06-05T08:45:21;94316.72;;;23.97;82.16
10079;BME280;5078;42.544;22.966;2023-06-05T08:47:50;94312.75;;;23.71;79.82
10079;BME280;5078;42.544;22.966;2023-06-05T08:50:17;94308.97;;;24.05;75.47
10079;BME280;5078;42.544;22.966;2023-06-05T08:52:45;94309.72;;;23.67;74.13
10079;BME280;5078;42.544;22.966;2023-06-05T08:55:14;94303.34;;;23.90;72.34
10079;BME280;5078;42.544;22.966;2023-06-05T08:57:41;94303.81;;;24.43;69.41
10079;BME280;5078;42.544;22.966;2023-06-05T09:00:10;94301.31;;;25.02;67.00
10079;BME280;5078;42.544;22.966;2023-06-05T09:02:38;94296.75;;;25.08;67.54
10079;BME280;5078;42.544;22.966;2023-06-05T09:05:10;94300.16;;;25.20;64.11
10079;BME280;5078;42.544;22.966;2023-06-05T09:07:37;94298.13;;;25.32;62.85
10079;BME280;5078;42.544;22.966;2023-06-05T09:10:06;94292.13;;;25.08;62.81
10079;BME280;5078;42.544;22.966;2023-06-05T09:12:52;94292.13;;;25.63;61.69
10079;BME280;5078;42.544;22.966;2023-06-05T09:15:22;94293.59;;;25.43;60.76
10079;BME280;5078;42.544;22.966;2023-06-05T09:18:02;94295.59;;;24.77;66.10
10079;BME280;5078;42.544;22.966;2023-06-05T09:20:30;94290.34;;;25.41;60.14
10079;BME280;5078;42.544;22.966;2023-06-05T09:23:00;94281.81;;;25.32;59.51
10079;BME280;5078;42.544;22.966;2023-06-05T09:28:16;94284.38;;;25.44;59.97
10079;BME280;5078;42.544;22.966;2023-06-05T09:31:01;94282.81;;;25.53;59.91
10079;BME280;5078;42.544;22.966;2023-06-05T09:33:29;94281.03;;;25.96;59.45
10079;BME280;5078;42.544;22.966;2023-06-05T09:36:05;94289.88;;;26.19;57.56
10079;BME280;5078;42.544;22.966;2023-06-05T09:38:35;94283.31;;;26.15;55.40
10079;BME280;5078;42.544;22.966;2023-06-05T09:41:03;94280.13;;;26.28;54.20
10079;BME280;5078;42.544;22.966;2023-06-05T09:43:33;94263.81;;;26.28;54.86
10079;BME280;5078;42.544;22.966;2023-06-05T09:46:06;94264.31;;;25.82;58.44
10079;BME280;5078;42.544;22.966;2023-06-05T09:48:33;94268.91;;;25.77;59.39
10079;BME280;5078;42.544;22.966;2023-06-05T09:51:13;94267.66;;;25.90;59.61
10079;BME280;5078;42.544;22.966;2023-06-05T09:53:44;94269.84;;;25.60;59.46
10079;BME280;5078;42.544;22.966;2023-06-05T09:56:12;94260.31;;;25.26;60.61
10079;BME280;5078;42.544;22.966;2023-06-05T09:58:45;94250.09;;;25.11;60.38
10079;BME280;5078;42.544;22.966;2023-06-05T10:01:15;94246.25;;;25.61;57.19
10079;BME280;5078;42.544;22.966;2023-06-05T10:03:46;94249.06;;;24.63;61.63
10079;BME280;5078;42.544;22.966;2023-06-05T10:06:16;94255.59;;;24.45;64.10
10079;BME280;5078;42.544;22.966;2023-06-05T10:08:49;94247.66;;;24.60;61.90
10079;BME280;5078;42.544;22.966;2023-06-05T10:11:17;94257.13;;;24.58;64.18
10079;BME280;5078;42.544;22.966;2023-06-05T10:13:45;94256.56;;;23.95;66.40
10079;BME280;5078;42.544;22.966;2023-06-05T10:16:13;94263.94;;;23.48;68.79
10079;BME280;5078;42.544;22.966;2023-06-05T10:18:40;94261.56;;;23.52;67.92
10079;BME280;5078;42.544;22.966;2023-06-05T10:21:08;94256.56;;;23.44;69.48
10079;BME280;5078;42.544;22.966;2023-06-05T10:23:36;94231.59;;;23.93;66.37
10079;BME280;5078;42.544;22.966;2023-06-05T10:26:06;94243.34;;;24.20;65.41
10079;BME280;5078;42.544;22.966;2023-06-05T10:28:43;94238.47;;;24.61;61.98
10079;BME280;5078;42.544;22.966;2023-06-05T10:31:20;94237.16;;;24.64;62.50
10079;BME280;5078;42.544;22.966;2023-06-05T10:39:36;94226.09;;;24.70;54.42
10079;BME280;5078;42.544;22.966;2023-06-05T10:42:03;94216.78;;;24.39;57.93
10079;BME280;5078;42.544;22.966;2023-06-05T10:44:40;94219.41;;;24.34;59.73
10079;BME280;5078;42.544;22.966;2023-06-05T10:50:22;94210.22;;;24.57;57.19
10079;BME280;5078;42.544;22.966;2023-06-05T10:52:52;94209.63;;;23.89;58.27
10079;BME280;5078;42.544;22.966;2023-06-05T10:55:21;94202.94;;;24.19;59.06
10079;BME280;5078;42.544;22.966;2023-06-05T10:58:02;94197.22;;;24.37;56.81
10079;BME280;5078;42.544;22.966;2023-06-05T11:00:30;94200.94;;;24.31;56.92
10079;BME280;5078;42.544;22.966;2023-06-05T11:02:57;94202.84;;;24.52;58.55
10079;BME280;5078;42.544;22.966;2023-06-05T11:05:24;94203.59;;;24.48;58.20
10079;BME280;5078;42.544;22.966;2023-06-05T11:08:09;94193.50;;;24.65;61.85
10079;BME280;5078;42.544;22.966;2023-06-05T11:11:04;94210.69;;;24.76;59.24
10079;BME280;5078;42.544;22.966;2023-06-05T11:13:56;94190.88;;;24.75;58.14
10079;BME280;5078;42.544;22.966;2023-06-05T11:16:30;94195.84;;;24.35;60.97
10079;BME280;5078;42.544;22.966;2023-06-05T11:19:34;94202.44;;;24.66;59.99
10079;BME280;5078;42.544;22.966;2023-06-05T11:22:02;94200.88;;;24.70;59.06
10079;BME280;5078;42.544;22.966;2023-06-05T11:24:29;94189.34;;;24.85;59.13
10079;BME280;5078;42.544;22.966;2023-06-05T11:26:57;94184.94;;;24.79;58.43
10079;BME280;5078;42.544;22.966;2023-06-05T11:29:25;94197.16;;;25.08;55.37
10079;BME280;5078;42.544;22.966;2023-06-05T11:31:52;94197.63;;;25.27;55.06
10079;BME280;5078;42.544;22.966;2023-06-05T11:34:19;94198.53;;;25.11;56.14
10079;BME280;5078;42.544;22.966;2023-06-05T11:36:46;94203.47;;;25.14;56.05
10079;BME280;5078;42.544;22.966;2023-06-05T11:39:13;94192.16;;;24.95;59.14
10079;BME280;5078;42.544;22.966;2023-06-05T11:41:43;94195.16;;;25.26;58.66
10079;BME280;5078;42.544;22.966;2023-06-05T11:44:13;94188.97;;;25.03;57.06
10079;BME280;5078;42.544;22.966;2023-06-05T11:46:40;94192.34;;;25.15;54.81
10079;BME280;5078;42.544;22.966;2023-06-05T11:49:09;94190.88;;;25.30;54.35
10079;BME280;5078;42.544;22.966;2023-06-05T11:51:48;94185.63;;;24.64;57.16
10079;BME280;5078;42.544;22.966;2023-06-05T11:54:26;94175.84;;;24.90;58.66
10079;BME280;5078;42.544;22.966;2023-06-05T11:56:58;94161.00;;;24.97;56.37
10079;BME280;5078;42.544;22.966;2023-06-05T11:59:28;94178.69;;;25.05;55.10
10079;BME280;5078;42.544;22.966;2023-06-05T12:01:55;94163.25;;;24.79;55.50
10079;BME280;5078;42.544;22.966;2023-06-05T12:04:22;94174.25;;;24.94;54.94
10079;BME280;5078;42.544;22.966;2023-06-05T12:06:49;94171.06;;;25.02;56.78
10079;BME280;5078;42.544;22.966;2023-06-05T12:09:17;94175.69;;;25.02;57.71
10079;BME280;5078;42.544;22.966;2023-06-05T12:11:44;94175.38;;;24.98;58.18
10079;BME280;5078;42.544;22.966;2023-06-05T12:14:12;94169.28;;;24.86;54.80
10079;BME280;5078;42.544;22.966;2023-06-05T12:16:41;94162.94;;;25.02;55.50
10079;BME280;5078;42.544;22.966;2023-06-05T12:19:12;94162.28;;;24.90;56.43
10079;BME280;5078;42.544;22.966;2023-06-05T12:21:39;94162.38;;;25.32;55.61
10079;BME280;5078;42.544;22.966;2023-06-05T12:24:07;94155.75;;;25.55;53.59
10079;BME280;5078;42.544;22.966;2023-06-05T12:26:52;94160.63;;;25.53;53.65
10079;BME280;5078;42.544;22.966;2023-06-05T12:29:21;94151.09;;;25.51;52.73
10079;BME280;5078;42.544;22.966;2023-06-05T12:31:50;94144.22;;;25.06;54.11
10079;BME280;5078;42.544;22.966;2023-06-05T12:34:17;94145.34;;;24.50;56.50
10079;BME280;5078;42.544;22.966;2023-06-05T12:36:44;94150.13;;;24.43;59.20
10079;BME280;5078;42.544;22.966;2023-06-05T12:39:13;94137.66;;;24.42;58.34
10079;BME280;5078;42.544;22.966;2023-06-05T12:41:41;94126.69;;;24.32;58.62
10079;BME280;5078;42.544;22.966;2023-06-05T12:44:09;94125.63;;;24.11;58.84
10079;BME280;5078;42.544;22.966;2023-06-05T12:46:37;94129.53;;;24.20;59.42
10079;BME280;5078;42.544;22.966;2023-06-05T12:49:05;94127.75;;;24.53;57.07
10079;BME280;5078;42.544;22.966;2023-06-05T12:51:32;94123.16;;;24.86;55.71
10079;BME280;5078;42.544;22.966;2023-06-05T12:53:59;94127.59;;;24.92;52.80
10079;BME280;5078;42.544;22.966;2023-06-05T12:56:26;94102.34;;;24.91;51.80
10079;BME280;5078;42.544;22.966;2023-06-05T12:58:54;94121.50;;;25.12;52.68
10079;BME280;5078;42.544;22.966;2023-06-05T13:01:22;94116.94;;;24.85;54.94
10079;BME280;5078;42.544;22.966;2023-06-05T13:03:49;94113.53;;;25.00;54.77
10079;BME280;5078;42.544;22.966;2023-06-05T13:06:17;94114.63;;;25.31;53.97
10079;BME280;5078;42.544;22.966;2023-06-05T13:08:44;94119.81;;;24.73;54.95
10079;BME280;5078;42.544;22.966;2023-06-05T13:11:12;94121.88;;;24.93;55.79